Terminal Aerodrome Forecast
Issued by NWS

Home | Current Version | Previous Version | Text Only | Print | Product List | Glossary On
Versions: 1 2 3 4 5 6 7 8 9 10 11 12 13 14 15 16 17 18 19 20 21 22 23 24 25 26 27 28 29 30
000
FTPQ31 PGUM 291129
TAFGUM
TAF

TAF
PKWA 291129Z 2912/3012 16007KT P6SM VCSH SCT017 SCT050 BKN140
      TEMPO 2914/2918 -SHRA SCT015 BKN030 BKN120
     FM292200 08011KT P6SM VCSH SCT015 SCT040 BKN120=

USA.gov is the U.S. government's official web portal to all federal, state and local government web resources and services.